Aquasco, Maryland
Current Conditions -  °F | °C
As of 5:58 PM on Saturday 22 Nov 2014 (Local Time) from KADW Reporting Station
Clear Clear  
Wind Chill: 38°   Ceiling: Unl
Heat Index: 43°   Visibility: 10mi
Dew Point: 16°   Wind: 7mph
Humidity: 35%   Direction: 190°S
Pressure: 30.3"   Gusts: NA
Location:  38.58°N, 76.73°W
Report Text: KADW 222258Z AUTO 19006KT 10SM CLR 06/M09 A3030 RMK AO2 SLP271 T00591087 $
Loading
Personal Weather Stations






























Interactive Weather Map New forecast layout! Learn more

10-Day Weather Forecast

Advertisements
Track Severe Weather on mobile